Time;durP1;ratioP1;P1;durP2;ratioP2;P2;SDS_P1;SDS_P2;PMS_P1;PMS_P2;Temp;Humidity;BMP_temperature;BMP_pressure;BME280_temperature;BME280_humidity;BME280_pressure;Samples;Min_cycle;Max_cycle;Signal;HPM_P1;HPM_P2
2022/09/07 00:00:52;;;;;;;2.08;1.33;;;;;;;;;;5134858;27;20017;-40
2022/09/07 00:03:18;;;;;;;2.78;1.15;;;;;;;;;;5131412;27;20046;-41
2022/09/07 00:05:44;;;;;;;2.85;1.48;;;;;;;;;;5131247;27;20048;-40
2022/09/07 00:08:10;;;;;;;5.90;1.25;;;;;;;;;;5130852;27;20061;-40
2022/09/07 00:10:35;;;;;;;3.97;1.58;;;;;;;;;;5133781;27;20027;-41
2022/09/07 00:13:01;;;;;;;7.63;2.47;;;;;;;;;;5114616;27;20023;-40
2022/09/07 00:15:26;;;;;;;8.18;2.97;;;;;;;;;;5134234;27;20088;-39
2022/09/07 00:17:51;;;;;;;6.97;2.95;;;;;;;;;;5134293;27;20015;-39
2022/09/07 00:20:17;;;;;;;3.85;2.42;;;;;;;;;;5133285;27;20046;-42
2022/09/07 00:22:42;;;;;;;6.72;2.67;;;;;;;;;;5132504;27;20046;-43
2022/09/07 00:25:08;;;;;;;1.88;1.50;;;;;;;;;;5131612;27;20035;-43
2022/09/07 00:27:36;;;;;;;4.75;2.97;;;;;;;;;;5134308;27;20024;-41
2022/09/07 00:30:01;;;;;;;6.35;2.13;;;;;;;;;;5129298;27;20058;-40
2022/09/07 00:32:26;;;;;;;3.25;2.00;;;;;;;;;;5130901;27;20051;-39
2022/09/07 00:34:52;;;;;;;4.18;1.48;;;;;;;;;;5134973;27;20119;-42
2022/09/07 00:37:17;;;;;;;4.43;1.85;;;;;;;;;;5132192;27;20813;-43
2022/09/07 00:39:42;;;;;;;3.42;2.05;;;;;;;;;;5117513;27;20046;-41
2022/09/07 00:42:08;;;;;;;3.00;1.80;;;;;;;;;;5134239;27;20494;-41
2022/09/07 00:44:42;;;;;;;3.42;2.17;;;;;;;;;;5128781;27;20031;-40
2022/09/07 00:47:31;;;;;;;2.20;1.17;;;;;;;;;;5131117;27;20062;-43
2022/09/07 00:49:59;;;;;;;3.22;1.40;;;;;;;;;;5120423;27;20508;-42
2022/09/07 00:52:25;;;;;;;6.30;2.03;;;;;;;;;;5134144;27;20289;-43
2022/09/07 00:54:53;;;;;;;5.15;1.52;;;;;;;;;;5132651;27;20084;-39
2022/09/07 00:57:18;;;;;;;1.88;1.20;;;;;;;;;;5133961;27;20026;-40
2022/09/07 00:59:47;;;;;;;4.78;2.50;;;;;;;;;;5135342;27;20703;-43
2022/09/07 01:02:15;;;;;;;3.53;2.45;;;;;;;;;;5131631;27;20023;-41
2022/09/07 01:04:40;;;;;;;6.53;3.75;;;;;;;;;;5132294;27;20019;-40
2022/09/07 01:07:06;;;;;;;3.25;1.98;;;;;;;;;;5134211;27;20030;-40
2022/09/07 01:09:32;;;;;;;3.03;1.55;;;;;;;;;;5133338;27;20401;-44
2022/09/07 01:11:58;;;;;;;2.95;1.98;;;;;;;;;;5132343;27;20512;-40
2022/09/07 01:14:28;;;;;;;1.48;1.08;;;;;;;;;;5135065;27;20044;-42
2022/09/07 01:17:12;;;;;;;3.28;1.90;;;;;;;;;;5136260;27;20027;-41
2022/09/07 01:19:52;;;;;;;5.00;1.73;;;;;;;;;;5134445;27;20035;-41
2022/09/07 01:22:27;;;;;;;4.53;2.58;;;;;;;;;;5131153;27;20026;-40
2022/09/07 01:24:52;;;;;;;3.20;2.28;;;;;;;;;;5132611;27;20083;-42
2022/09/07 01:27:36;;;;;;;2.78;1.80;;;;;;;;;;5130936;27;20469;-42
2022/09/07 01:30:22;;;;;;;13.93;2.70;;;;;;;;;;5129294;27;20068;-46
2022/09/07 01:32:59;;;;;;;8.82;1.55;;;;;;;;;;5130542;27;20528;-42
2022/09/07 01:35:27;;;;;;;5.78;2.45;;;;;;;;;;5133208;27;20597;-45
2022/09/07 01:38:02;;;;;;;2.03;1.38;;;;;;;;;;5134105;27;20023;-42
2022/09/07 01:40:42;;;;;;;6.95;1.85;;;;;;;;;;5130654;27;20033;-40
2022/09/07 01:43:11;;;;;;;2.50;1.85;;;;;;;;;;5130790;27;20026;-43
2022/09/07 01:45:39;;;;;;;3.67;1.98;;;;;;;;;;5128025;27;20023;-41
2022/09/07 01:48:06;;;;;;;3.10;1.92;;;;;;;;;;5130826;27;20252;-42
2022/09/07 01:50:31;;;;;;;2.63;1.83;;;;;;;;;;5130639;27;20019;-40
2022/09/07 01:52:56;;;;;;;4.43;2.33;;;;;;;;;;5136590;27;20023;-43
2022/09/07 01:55:34;;;;;;;4.47;2.47;;;;;;;;;;5133402;27;20100;-45
2022/09/07 01:58:08;;;;;;;4.55;2.28;;;;;;;;;;5130013;27;20541;-41
2022/09/07 02:00:34;;;;;;;4.35;2.50;;;;;;;;;;5133390;27;20030;-41
2022/09/07 02:03:20;;;;;;;4.32;2.67;;;;;;;;;;5134148;27;20018;-42
2022/09/07 02:06:05;;;;;;;3.67;2.03;;;;;;;;;;5131756;27;20035;-40
2022/09/07 02:08:33;;;;;;;3.88;2.58;;;;;;;;;;5130262;27;20129;-44
2022/09/07 02:11:04;;;;;;;9.27;2.63;;;;;;;;;;5136082;27;20068;-43
2022/09/07 02:13:40;;;;;;;3.35;2.40;;;;;;;;;;5132466;27;20012;-40
2022/09/07 02:16:10;;;;;;;3.97;2.50;;;;;;;;;;5134689;27;20130;-39
2022/09/07 02:18:40;;;;;;;5.72;1.88;;;;;;;;;;5130035;27;20019;-40
2022/09/07 02:21:07;;;;;;;4.43;1.80;;;;;;;;;;5130526;27;20502;-42
2022/09/07 02:23:36;;;;;;;4.75;2.47;;;;;;;;;;5135620;27;20103;-40
2022/09/07 02:26:03;;;;;;;4.00;1.60;;;;;;;;;;5130100;27;20065;-41
2022/09/07 02:28:31;;;;;;;11.77;2.30;;;;;;;;;;5133657;27;20038;-41
2022/09/07 02:30:56;;;;;;;2.83;2.08;;;;;;;;;;5135774;27;20098;-40
2022/09/07 02:33:22;;;;;;;4.40;2.05;;;;;;;;;;5139883;27;20138;-39
2022/09/07 02:35:47;;;;;;;6.55;2.38;;;;;;;;;;5138668;27;20359;-39
2022/09/07 02:38:13;;;;;;;2.47;1.60;;;;;;;;;;5138425;27;20770;-41
2022/09/07 02:40:38;;;;;;;2.92;1.58;;;;;;;;;;5140383;27;20030;-42
2022/09/07 02:43:05;;;;;;;1.70;0.90;;;;;;;;;;5134253;27;20034;-40
2022/09/07 02:45:57;;;;;;;5.25;1.40;;;;;;;;;;5135765;27;20030;-39
2022/09/07 02:48:22;;;;;;;1.05;0.90;;;;;;;;;;5134728;27;20133;-42
2022/09/07 02:51:08;;;;;;;8.05;2.13;;;;;;;;;;5135577;27;20098;-40
2022/09/07 02:53:49;;;;;;;10.65;2.38;;;;;;;;;;5134633;27;20038;-41
2022/09/07 02:56:17;;;;;;;3.20;1.92;;;;;;;;;;5136010;27;20130;-42
2022/09/07 02:58:51;;;;;;;2.80;2.22;;;;;;;;;;5136217;27;20019;-42
2022/09/07 03:01:25;;;;;;;12.65;2.90;;;;;;;;;;5133416;27;20019;-39
2022/09/07 03:04:06;;;;;;;5.72;1.77;;;;;;;;;;5135045;27;20027;-40
2022/09/07 03:06:39;;;;;;;4.38;3.22;;;;;;;;;;5138797;27;20366;-39
2022/09/07 03:09:14;;;;;;;6.90;2.90;;;;;;;;;;5132775;27;20026;-39
2022/09/07 03:11:40;;;;;;;3.00;1.52;;;;;;;;;;5137432;27;20015;-43
2022/09/07 03:14:12;;;;;;;4.57;2.15;;;;;;;;;;5128992;27;20019;-40
2022/09/07 03:16:37;;;;;;;3.80;2.50;;;;;;;;;;5133735;27;20024;-41
2022/09/07 03:19:03;;;;;;;4.70;2.13;;;;;;;;;;5135166;27;20022;-40
2022/09/07 03:21:29;;;;;;;7.53;2.50;;;;;;;;;;5132365;27;20050;-39
2022/09/07 03:23:55;;;;;;;4.38;2.42;;;;;;;;;;5136904;27;20034;-41
2022/09/07 03:26:26;;;;;;;7.18;1.92;;;;;;;;;;5134162;27;20425;-40
2022/09/07 03:28:51;;;;;;;2.83;1.83;;;;;;;;;;5133831;27;20576;-39
2022/09/07 03:31:17;;;;;;;11.13;3.10;;;;;;;;;;5128205;27;20092;-40
2022/09/07 03:33:42;;;;;;;2.15;1.33;;;;;;;;;;5133422;27;20371;-39
2022/09/07 03:36:07;;;;;;;10.73;1.65;;;;;;;;;;5137427;27;20526;-42
2022/09/07 03:38:32;;;;;;;2.28;1.80;;;;;;;;;;5136598;27;20102;-40
2022/09/07 03:41:02;;;;;;;2.53;1.90;;;;;;;;;;5130154;27;20038;-39
2022/09/07 03:43:28;;;;;;;8.38;2.13;;;;;;;;;;5135123;27;20014;-40
2022/09/07 03:45:56;;;;;;;2.60;1.88;;;;;;;;;;5134136;27;20019;-39
2022/09/07 03:48:22;;;;;;;4.32;1.92;;;;;;;;;;5135187;27;20507;-39
2022/09/07 03:50:54;;;;;;;3.13;2.42;;;;;;;;;;5126704;27;20033;-40
2022/09/07 03:53:19;;;;;;;4.97;2.72;;;;;;;;;;5123646;27;20039;-40
2022/09/07 03:55:54;;;;;;;6.63;2.13;;;;;;;;;;5134726;27;20419;-40
2022/09/07 03:58:19;;;;;;;4.30;1.77;;;;;;;;;;5131750;27;20027;-39
2022/09/07 04:00:44;;;;;;;3.67;1.67;;;;;;;;;;5128498;27;20370;-40
2022/09/07 04:03:09;;;;;;;1.92;1.38;;;;;;;;;;5129386;27;20028;-40
2022/09/07 04:05:35;;;;;;;2.42;2.22;;;;;;;;;;5136673;27;20229;-40
2022/09/07 04:08:00;;;;;;;6.07;3.63;;;;;;;;;;5137427;27;20027;-41
2022/09/07 04:10:26;;;;;;;4.50;2.15;;;;;;;;;;5130002;27;20639;-41
2022/09/07 04:12:52;;;;;;;3.50;2.28;;;;;;;;;;5136046;27;20015;-39
2022/09/07 04:15:17;;;;;;;3.95;1.65;;;;;;;;;;5131543;27;20026;-39
2022/09/07 04:17:42;;;;;;;10.20;5.38;;;;;;;;;;5131395;27;20037;-40
2022/09/07 04:20:08;;;;;;;2.72;2.10;;;;;;;;;;5132232;27;20022;-39
2022/09/07 04:22:33;;;;;;;6.65;1.73;;;;;;;;;;5130942;27;20030;-39
2022/09/07 04:24:58;;;;;;;4.93;3.22;;;;;;;;;;5133266;27;20608;-41
2022/09/07 04:27:24;;;;;;;1.98;1.38;;;;;;;;;;5135245;27;20023;-40
2022/09/07 04:29:49;;;;;;;2.47;1.58;;;;;;;;;;5135215;27;20115;-40
2022/09/07 04:32:14;;;;;;;2.22;1.95;;;;;;;;;;5132784;27;20011;-40
2022/09/07 04:34:39;;;;;;;4.63;2.28;;;;;;;;;;5139056;27;20385;-40
2022/09/07 04:37:05;;;;;;;2.38;1.77;;;;;;;;;;5136733;27;20109;-39
2022/09/07 04:39:30;;;;;;;2.00;1.77;;;;;;;;;;5135989;27;20493;-39
2022/09/07 04:41:56;;;;;;;5.53;1.55;;;;;;;;;;5130414;27;20011;-39
2022/09/07 04:44:21;;;;;;;3.55;1.88;;;;;;;;;;5126331;27;20018;-40
2022/09/07 04:46:46;;;;;;;3.28;1.83;;;;;;;;;;5129563;27;20031;-40
2022/09/07 04:49:12;;;;;;;1.98;1.02;;;;;;;;;;5130246;27;20707;-39
2022/09/07 04:51:38;;;;;;;4.57;2.80;;;;;;;;;;5131263;27;20025;-40
2022/09/07 04:54:04;;;;;;;3.80;3.30;;;;;;;;;;5129819;27;20023;-40
2022/09/07 04:56:30;;;;;;;8.10;1.92;;;;;;;;;;5129621;27;20038;-40
2022/09/07 04:58:55;;;;;;;6.78;1.65;;;;;;;;;;5134185;27;20027;-39
2022/09/07 05:01:22;;;;;;;2.42;1.92;;;;;;;;;;5133242;27;20070;-39
2022/09/07 05:03:48;;;;;;;6.32;5.72;;;;;;;;;;5137860;27;20025;-39
2022/09/07 05:06:14;;;;;;;4.82;2.22;;;;;;;;;;5132059;27;20023;-39
2022/09/07 05:08:40;;;;;;;8.52;2.08;;;;;;;;;;5134804;27;20535;-40
2022/09/07 05:11:06;;;;;;;4.30;2.50;;;;;;;;;;5129286;27;20023;-40
2022/09/07 05:13:32;;;;;;;11.20;3.30;;;;;;;;;;5134143;27;20346;-40
2022/09/07 05:15:57;;;;;;;3.95;2.00;;;;;;;;;;5129432;27;20229;-41
2022/09/07 05:18:23;;;;;;;13.00;2.30;;;;;;;;;;5134539;27;20027;-40
2022/09/07 05:20:48;;;;;;;8.90;3.83;;;;;;;;;;5128303;27;20034;-40
2022/09/07 05:23:14;;;;;;;4.60;2.50;;;;;;;;;;5133144;27;20022;-39
2022/09/07 05:25:43;;;;;;;3.75;2.15;;;;;;;;;;5131015;27;20464;-39
2022/09/07 05:28:08;;;;;;;5.82;2.20;;;;;;;;;;5131751;27;20023;-39
2022/09/07 05:30:34;;;;;;;6.97;3.53;;;;;;;;;;5130296;27;20041;-40
2022/09/07 05:33:00;;;;;;;16.35;2.15;;;;;;;;;;5129806;27;20049;-40
2022/09/07 05:35:25;;;;;;;14.90;4.45;;;;;;;;;;5133322;27;20046;-40
2022/09/07 05:37:51;;;;;;;20.83;3.40;;;;;;;;;;5131500;27;20114;-39
2022/09/07 05:40:16;;;;;;;4.85;2.03;;;;;;;;;;5133030;27;20019;-40
2022/09/07 05:42:41;;;;;;;6.55;3.05;;;;;;;;;;5129108;27;20022;-42
2022/09/07 05:45:07;;;;;;;12.02;3.42;;;;;;;;;;5131848;27;20466;-40
2022/09/07 05:47:32;;;;;;;10.82;3.78;;;;;;;;;;5133500;27;20030;-40
2022/09/07 05:49:58;;;;;;;5.13;2.85;;;;;;;;;;5133955;27;20014;-40
2022/09/07 05:52:23;;;;;;;5.72;2.90;;;;;;;;;;5133461;27;20067;-41
2022/09/07 05:54:49;;;;;;;18.48;2.85;;;;;;;;;;5133860;27;20127;-40
2022/09/07 05:57:14;;;;;;;13.57;4.00;;;;;;;;;;5134098;27;20463;-40
2022/09/07 05:59:40;;;;;;;25.20;4.38;;;;;;;;;;5128296;27;20027;-40
2022/09/07 06:02:05;;;;;;;11.35;5.05;;;;;;;;;;5136407;27;20567;-39
2022/09/07 06:04:31;;;;;;;6.90;2.60;;;;;;;;;;5139996;27;20148;-40
2022/09/07 06:06:56;;;;;;;3.10;2.35;;;;;;;;;;5139937;27;20023;-41
2022/09/07 06:09:22;;;;;;;19.90;3.67;;;;;;;;;;5142036;27;20019;-39
2022/09/07 06:11:48;;;;;;;3.63;2.40;;;;;;;;;;5130590;27;20019;-40
2022/09/07 06:14:13;;;;;;;3.60;2.53;;;;;;;;;;5139377;27;20587;-39
2022/09/07 06:16:39;;;;;;;5.93;2.92;;;;;;;;;;5135924;27;20114;-40
2022/09/07 06:19:05;;;;;;;9.40;2.40;;;;;;;;;;5134324;27;20026;-39
2022/09/07 06:21:33;;;;;;;13.82;5.90;;;;;;;;;;5132011;27;20480;-40
2022/09/07 06:23:58;;;;;;;26.15;5.38;;;;;;;;;;5135466;27;20033;-40
2022/09/07 06:26:24;;;;;;;30.40;11.18;;;;;;;;;;5134243;27;20023;-38
2022/09/07 06:28:49;;;;;;;24.17;12.27;;;;;;;;;;5137595;27;20395;-37
2022/09/07 06:31:16;;;;;;;28.02;21.02;;;;;;;;;;5135526;27;20051;-39
2022/09/07 06:33:43;;;;;;;28.83;17.13;;;;;;;;;;5138466;27;20046;-40
2022/09/07 06:36:10;;;;;;;10.75;9.65;;;;;;;;;;5134065;27;20102;-41
2022/09/07 06:38:36;;;;;;;8.20;5.50;;;;;;;;;;5132831;27;20047;-40
2022/09/07 06:41:05;;;;;;;17.88;6.75;;;;;;;;;;5138672;27;20038;-40
2022/09/07 06:43:31;;;;;;;8.32;5.63;;;;;;;;;;5134051;27;20024;-41
2022/09/07 06:45:57;;;;;;;8.45;6.93;;;;;;;;;;5133517;27;20015;-42
2022/09/07 06:48:23;;;;;;;8.88;7.90;;;;;;;;;;5135126;27;20455;-39
2022/09/07 06:50:58;;;;;;;8.13;6.43;;;;;;;;;;5133770;27;20079;-41
2022/09/07 06:53:24;;;;;;;17.20;7.47;;;;;;;;;;5133482;27;20019;-41
2022/09/07 06:55:50;;;;;;;19.88;9.32;;;;;;;;;;5132679;27;20096;-38
2022/09/07 06:58:15;;;;;;;25.73;7.97;;;;;;;;;;5134435;27;20019;-40
2022/09/07 07:00:40;;;;;;;12.07;8.90;;;;;;;;;;5130966;27;20026;-41
2022/09/07 07:03:06;;;;;;;13.93;11.70;;;;;;;;;;5134715;27;20533;-39
2022/09/07 07:05:31;;;;;;;12.85;6.32;;;;;;;;;;5133973;27;20494;-38
2022/09/07 07:07:56;;;;;;;9.38;7.05;;;;;;;;;;5131174;27;20031;-37
2022/09/07 07:10:22;;;;;;;13.02;7.97;;;;;;;;;;5131589;27;20018;-37
2022/09/07 07:12:47;;;;;;;11.65;8.68;;;;;;;;;;5131767;27;20019;-38
2022/09/07 07:15:12;;;;;;;18.58;10.57;;;;;;;;;;5130610;27;20147;-38
2022/09/07 07:17:38;;;;;;;18.90;10.38;;;;;;;;;;5131657;27;20031;-38
2022/09/07 07:20:03;;;;;;;36.38;9.77;;;;;;;;;;5133734;27;20615;-38
2022/09/07 07:22:29;;;;;;;12.00;9.13;;;;;;;;;;5129896;27;20038;-40
2022/09/07 07:24:54;;;;;;;12.75;10.07;;;;;;;;;;5132665;27;20022;-38
2022/09/07 07:27:20;;;;;;;26.60;20.52;;;;;;;;;;5134564;27;20529;-38
2022/09/07 07:29:46;;;;;;;30.73;14.27;;;;;;;;;;5135574;27;20176;-41
2022/09/07 07:32:11;;;;;;;21.80;13.90;;;;;;;;;;5138206;27;20403;-38
2022/09/07 07:34:36;;;;;;;28.63;16.08;;;;;;;;;;5131590;27;20031;-38
2022/09/07 07:37:02;;;;;;;57.83;23.90;;;;;;;;;;5131621;27;20026;-42
2022/09/07 07:39:27;;;;;;;24.88;12.50;;;;;;;;;;5136276;27;20045;-39
2022/09/07 07:41:52;;;;;;;17.45;12.82;;;;;;;;;;5131571;27;20478;-39
2022/09/07 07:44:19;;;;;;;18.63;13.00;;;;;;;;;;5133905;27;20027;-39
2022/09/07 07:46:48;;;;;;;22.40;16.85;;;;;;;;;;5133226;27;20115;-38
2022/09/07 07:49:13;;;;;;;33.08;15.48;;;;;;;;;;5133578;27;20015;-41
2022/09/07 07:51:39;;;;;;;26.83;11.70;;;;;;;;;;5132275;27;20067;-38
2022/09/07 07:54:04;;;;;;;16.27;13.20;;;;;;;;;;5130919;27;20042;-38
2022/09/07 07:56:29;;;;;;;35.63;23.55;;;;;;;;;;5131420;27;20414;-42
2022/09/07 07:58:54;;;;;;;46.80;31.52;;;;;;;;;;5130919;27;20411;-39
2022/09/07 08:01:20;;;;;;;19.90;14.75;;;;;;;;;;5131859;27;20027;-40
2022/09/07 08:03:48;;;;;;;14.85;12.32;;;;;;;;;;5131988;27;20431;-39
2022/09/07 08:06:14;;;;;;;24.30;17.63;;;;;;;;;;5135122;27;20053;-44
2022/09/07 08:08:40;;;;;;;23.58;19.88;;;;;;;;;;5133755;27;20028;-42
2022/09/07 08:11:07;;;;;;;30.85;19.23;;;;;;;;;;5132400;27;20030;-39
2022/09/07 08:13:36;;;;;;;23.45;13.13;;;;;;;;;;5132322;27;20095;-43
2022/09/07 08:16:02;;;;;;;18.08;13.90;;;;;;;;;;5132487;27;20139;-39
2022/09/07 08:18:27;;;;;;;9.98;6.57;;;;;;;;;;5129921;27;20027;-40
2022/09/07 08:20:53;;;;;;;17.67;10.15;;;;;;;;;;5129496;27;20481;-41
2022/09/07 08:23:21;;;;;;;8.38;4.75;;;;;;;;;;5136477;27;20027;-38
2022/09/07 08:25:50;;;;;;;22.17;11.15;;;;;;;;;;5133565;27;20030;-42
2022/09/07 08:28:16;;;;;;;17.88;10.05;;;;;;;;;;5125182;27;20520;-39
2022/09/07 08:30:41;;;;;;;10.07;6.57;;;;;;;;;;5131765;27;20028;-40
2022/09/07 08:33:07;;;;;;;12.93;7.80;;;;;;;;;;5131849;27;20466;-40
2022/09/07 08:35:32;;;;;;;21.92;8.00;;;;;;;;;;5134644;27;20397;-40
2022/09/07 08:37:57;;;;;;;10.27;6.50;;;;;;;;;;5131677;27;20042;-39
2022/09/07 08:40:22;;;;;;;15.50;6.72;;;;;;;;;;5132129;27;20027;-43
2022/09/07 08:42:50;;;;;;;13.73;6.32;;;;;;;;;;5128709;27;20565;-40
2022/09/07 08:45:25;;;;;;;12.40;8.15;;;;;;;;;;5133461;27;20109;-42
2022/09/07 08:47:50;;;;;;;9.18;5.47;;;;;;;;;;5137017;27;20113;-40
2022/09/07 08:50:32;;;;;;;19.85;6.63;;;;;;;;;;5124725;27;20171;-42
2022/09/07 08:53:03;;;;;;;10.93;5.75;;;;;;;;;;5130337;27;20544;-43
2022/09/07 08:56:04;;;;;;;11.85;6.95;;;;;;;;;;5129294;27;20616;-41
2022/09/07 08:58:29;;;;;;;;;;;;;;;;;;5031917;28;20472;-43
2022/09/07 09:00:54;;;;;;;14.00;6.70;;;;;;;;;;5112854;27;20046;-42
2022/09/07 09:03:30;;;;;;;16.00;7.80;;;;;;;;;;5130726;27;20026;-44
2022/09/07 09:06:15;;;;;;;24.83;9.23;;;;;;;;;;5132880;27;20055;-41
2022/09/07 09:08:40;;;;;;;3.53;3.13;;;;;;;;;;5133753;27;20118;-42
2022/09/07 09:11:10;;;;;;;4.68;2.63;;;;;;;;;;5129899;27;20023;-44
2022/09/07 09:13:48;;;;;;;8.38;3.38;;;;;;;;;;5129438;27;20015;-41
2022/09/07 09:16:19;;;;;;;13.45;3.65;;;;;;;;;;5135845;27;20870;-41
2022/09/07 09:19:05;;;;;;;7.20;3.78;;;;;;;;;;5127886;27;20063;-43
2022/09/07 09:21:30;;;;;;;7.40;5.93;;;;;;;;;;5081803;27;20034;-41
2022/09/07 09:23:59;;;;;;;5.65;3.03;;;;;;;;;;5134153;27;20023;-42
2022/09/07 09:26:26;;;;;;;7.05;3.90;;;;;;;;;;5129307;27;20026;-44
2022/09/07 09:28:51;;;;;;;4.10;3.08;;;;;;;;;;5128954;27;20015;-43
2022/09/07 09:31:21;;;;;;;9.45;3.83;;;;;;;;;;5133660;27;20026;-43
2022/09/07 09:34:07;;;;;;;12.93;4.83;;;;;;;;;;5131880;27;20026;-40
2022/09/07 09:36:33;;;;;;;6.50;2.53;;;;;;;;;;5130997;27;20035;-44
2022/09/07 09:39:02;;;;;;;5.28;3.33;;;;;;;;;;5135971;27;20019;-46
2022/09/07 09:41:35;;;;;;;5.00;3.35;;;;;;;;;;5129070;27;20027;-42
2022/09/07 09:44:01;;;;;;;3.00;2.35;;;;;;;;;;5136933;27;20019;-42
2022/09/07 09:46:26;;;;;;;6.72;1.90;;;;;;;;;;5131102;27;20038;-42
2022/09/07 09:48:54;;;;;;;9.55;2.75;;;;;;;;;;5132365;27;20019;-42
2022/09/07 09:51:20;;;;;;;6.93;3.22;;;;;;;;;;5130407;27;20054;-42
2022/09/07 09:53:53;;;;;;;4.55;1.77;;;;;;;;;;5132872;27;20050;-43
2022/09/07 09:56:19;;;;;;;9.38;4.68;;;;;;;;;;5132938;27;20045;-47
2022/09/07 09:58:46;;;;;;;8.80;3.30;;;;;;;;;;5135357;27;20452;-45
2022/09/07 10:01:40;;;;;;;7.22;2.78;;;;;;;;;;5129857;27;20126;-41
2022/09/07 10:04:18;;;;;;;4.85;2.08;;;;;;;;;;5101973;27;20031;-42
2022/09/07 10:06:54;;;;;;;3.80;2.42;;;;;;;;;;5127153;27;20028;-41
2022/09/07 10:09:33;;;;;;;5.20;2.28;;;;;;;;;;5133079;27;20026;-42
2022/09/07 10:11:59;;;;;;;3.58;1.23;;;;;;;;;;5128651;27;20133;-44
2022/09/07 10:14:27;;;;;;;1.85;1.17;;;;;;;;;;5133950;27;20027;-42
2022/09/07 10:16:53;;;;;;;8.98;2.10;;;;;;;;;;5128918;27;20075;-42
2022/09/07 10:19:27;;;;;;;7.32;2.67;;;;;;;;;;5128425;27;20027;-46
2022/09/07 10:21:54;;;;;;;5.63;2.40;;;;;;;;;;5128499;27;20031;-44
2022/09/07 10:24:24;;;;;;;5.28;2.33;;;;;;;;;;5129154;27;20026;-43
2022/09/07 10:26:49;;;;;;;8.23;1.27;;;;;;;;;;5131389;27;20456;-49
2022/09/07 10:29:15;;;;;;;3.40;1.83;;;;;;;;;;5125835;27;20496;-45
2022/09/07 10:31:47;;;;;;;6.90;2.83;;;;;;;;;;5129840;27;20470;-42
2022/09/07 10:34:12;;;;;;;2.75;1.52;;;;;;;;;;5128828;27;20362;-47
2022/09/07 10:36:37;;;;;;;2.88;2.08;;;;;;;;;;5133986;27;20163;-43
2022/09/07 10:39:05;;;;;;;9.23;2.80;;;;;;;;;;5124836;27;20045;-41
2022/09/07 10:41:45;;;;;;;4.60;1.52;;;;;;;;;;5130260;27;20019;-44
2022/09/07 10:44:11;;;;;;;;;;;;;;;;;;5135793;27;20539;-41
2022/09/07 10:46:42;;;;;;;1.73;1.30;;;;;;;;;;5129342;27;19911;-44
2022/09/07 10:49:26;;;;;;;3.88;1.58;;;;;;;;;;5134866;27;20300;-46
2022/09/07 10:51:56;;;;;;;1.58;1.20;;;;;;;;;;5135744;27;20116;-42
2022/09/07 10:54:48;;;;;;;4.57;1.50;;;;;;;;;;5138021;27;20011;-42
2022/09/07 10:57:32;;;;;;;3.50;2.08;;;;;;;;;;5134956;27;20023;-42
2022/09/07 11:00:11;;;;;;;6.65;2.30;;;;;;;;;;5131771;27;20031;-43
2022/09/07 11:02:47;;;;;;;2.75;1.70;;;;;;;;;;5127548;27;20027;-43
2022/09/07 11:05:31;;;;;;;11.02;3.28;;;;;;;;;;5112169;27;20092;-43
2022/09/07 11:08:15;;;;;;;8.40;3.28;;;;;;;;;;5131750;27;20118;-42
2022/09/07 11:11:00;;;;;;;6.25;2.95;;;;;;;;;;5133639;27;20088;-41
2022/09/07 11:13:28;;;;;;;14.88;3.33;;;;;;;;;;5135599;27;20007;-41
2022/09/07 11:15:57;;;;;;;15.93;2.67;;;;;;;;;;5130688;27;20019;-42
2022/09/07 11:18:31;;;;;;;5.68;2.35;;;;;;;;;;5131633;27;20027;-44
2022/09/07 11:20:59;;;;;;;9.82;2.15;;;;;;;;;;5135476;27;20035;-41
2022/09/07 11:23:25;;;;;;;8.48;2.45;;;;;;;;;;5126878;27;20031;-43
2022/09/07 11:26:02;;;;;;;3.30;2.22;;;;;;;;;;5134537;27;20057;-46
2022/09/07 11:28:33;;;;;;;2.20;1.33;;;;;;;;;;5136661;27;20196;-40
2022/09/07 11:31:00;;;;;;;2.15;1.08;;;;;;;;;;5137237;27;20035;-44
2022/09/07 11:33:30;;;;;;;3.80;1.33;;;;;;;;;;5139620;27;20098;-41
2022/09/07 11:36:01;;;;;;;2.70;1.63;;;;;;;;;;5132880;27;20035;-41
2022/09/07 11:38:58;;;;;;;5.60;2.10;;;;;;;;;;5134901;27;20247;-42
2022/09/07 11:41:26;;;;;;;1.58;0.90;;;;;;;;;;5086337;27;20035;-45
2022/09/07 11:43:57;;;;;;;9.32;2.22;;;;;;;;;;5135642;27;20026;-40
2022/09/07 11:46:25;;;;;;;4.80;1.88;;;;;;;;;;5132868;27;20099;-41
2022/09/07 11:48:55;;;;;;;2.78;1.25;;;;;;;;;;5130102;27;20031;-41
2022/09/07 11:51:35;;;;;;;16.80;2.83;;;;;;;;;;5131426;27;20010;-41
2022/09/07 11:54:07;;;;;;;4.72;2.00;;;;;;;;;;5127504;27;20015;-41
2022/09/07 11:56:34;;;;;;;2.33;1.52;;;;;;;;;;5129991;27;20049;-42
2022/09/07 11:59:18;;;;;;;4.47;1.80;;;;;;;;;;5128698;27;20062;-42
2022/09/07 12:02:10;;;;;;;6.68;2.13;;;;;;;;;;5131189;27;20044;-42
2022/09/07 12:04:38;;;;;;;6.82;1.63;;;;;;;;;;5132091;27;20091;-41
2022/09/07 12:07:22;;;;;;;3.10;1.23;;;;;;;;;;5114240;27;20023;-45
2022/09/07 12:09:53;;;;;;;4.03;1.25;;;;;;;;;;5133205;27;20019;-44
2022/09/07 12:12:19;;;;;;;6.72;1.83;;;;;;;;;;5135307;27;20015;-45
2022/09/07 12:14:55;;;;;;;2.00;1.10;;;;;;;;;;5130282;27;20037;-44
2022/09/07 12:17:39;;;;;;;1.48;1.13;;;;;;;;;;5131735;27;20761;-45
2022/09/07 12:20:10;;;;;;;1.83;1.13;;;;;;;;;;5130210;27;20110;-42
2022/09/07 12:22:36;;;;;;;5.80;2.38;;;;;;;;;;5133533;27;20423;-43
2022/09/07 12:25:09;;;;;;;6.40;2.45;;;;;;;;;;5132166;27;20105;-44
2022/09/07 12:27:35;;;;;;;5.30;1.70;;;;;;;;;;5132936;27;20067;-41
2022/09/07 12:30:00;;;;;;;2.40;1.33;;;;;;;;;;5134857;27;20011;-45
2022/09/07 12:32:44;;;;;;;2.95;1.17;;;;;;;;;;5131011;27;20651;-40
2022/09/07 12:35:32;;;;;;;4.25;1.83;;;;;;;;;;5127289;27;20019;-45
2022/09/07 12:37:59;;;;;;;2.10;0.90;;;;;;;;;;5118655;27;20524;-46
2022/09/07 12:40:27;;;;;;;6.32;1.25;;;;;;;;;;5133489;27;20038;-44
2022/09/07 12:43:11;;;;;;;2.65;1.00;;;;;;;;;;5130909;27;20037;-44
2022/09/07 12:45:36;;;;;;;5.07;1.88;;;;;;;;;;5134230;27;20030;-42
2022/09/07 12:48:06;;;;;;;1.98;1.10;;;;;;;;;;5131797;27;20019;-45
2022/09/07 12:50:36;;;;;;;1.87;1.37;;;;;;;;;;5130443;27;20030;-45
2022/09/07 12:53:16;;;;;;;6.97;2.33;;;;;;;;;;5134603;27;20626;-44
2022/09/07 12:55:53;;;;;;;1.35;0.73;;;;;;;;;;5133397;27;20259;-45
2022/09/07 12:58:18;;;;;;;0.57;0.45;;;;;;;;;;5131842;27;20031;-46
2022/09/07 13:00:53;;;;;;;4.57;1.10;;;;;;;;;;5128484;27;20102;-45
2022/09/07 13:03:30;;;;;;;2.17;1.10;;;;;;;;;;5134950;27;20038;-41
2022/09/07 13:05:55;;;;;;;2.55;1.58;;;;;;;;;;5134636;27;20023;-44
2022/09/07 13:08:36;;;;;;;4.78;1.30;;;;;;;;;;5131480;27;20421;-45
2022/09/07 13:11:24;;;;;;;7.65;1.58;;;;;;;;;;5132937;27;20019;-43
2022/09/07 13:13:58;;;;;;;2.25;1.05;;;;;;;;;;5119172;27;20059;-43
2022/09/07 13:16:25;;;;;;;6.25;1.33;;;;;;;;;;5132477;27;20019;-42
2022/09/07 13:18:50;;;;;;;3.55;1.65;;;;;;;;;;5125842;27;20457;-47
2022/09/07 13:21:17;;;;;;;9.30;1.83;;;;;;;;;;5132180;27;20022;-45
2022/09/07 13:23:43;;;;;;;4.03;1.73;;;;;;;;;;5127931;27;20034;-45
2022/09/07 13:26:31;;;;;;;3.65;1.85;;;;;;;;;;5129997;27;20015;-45
2022/09/07 13:28:57;;;;;;;3.17;1.45;;;;;;;;;;5130533;27;20148;-47
2022/09/07 13:31:31;;;;;;;5.65;1.30;;;;;;;;;;5131463;27;20026;-46
2022/09/07 13:33:56;;;;;;;3.17;1.15;;;;;;;;;;5131310;27;20027;-46
2022/09/07 13:36:35;;;;;;;2.42;1.75;;;;;;;;;;5128151;27;20023;-44
2022/09/07 13:39:03;;;;;;;7.55;2.13;;;;;;;;;;5125878;27;20038;-43
2022/09/07 13:41:37;;;;;;;9.75;2.38;;;;;;;;;;5128445;27;20066;-43
2022/09/07 13:44:03;;;;;;;8.10;2.55;;;;;;;;;;5130940;27;20010;-42
2022/09/07 13:46:34;;;;;;;8.02;2.42;;;;;;;;;;5128333;27;20106;-42
2022/09/07 13:49:05;;;;;;;6.90;2.53;;;;;;;;;;5129288;27;20010;-42
2022/09/07 13:52:03;;;;;;;11.57;2.22;;;;;;;;;;5131050;27;20475;-41
2022/09/07 13:54:39;;;;;;;6.45;1.75;;;;;;;;;;5079405;27;20024;-41
2022/09/07 13:57:16;;;;;;;2.83;1.45;;;;;;;;;;5130382;27;20030;-41
2022/09/07 13:59:41;;;;;;;2.92;1.38;;;;;;;;;;5130535;27;20074;-41
2022/09/07 14:02:27;;;;;;;8.88;2.63;;;;;;;;;;5124598;27;20095;-43
2022/09/07 14:04:53;;;;;;;3.92;1.20;;;;;;;;;;5134020;27;20442;-41
2022/09/07 14:07:20;;;;;;;2.65;1.90;;;;;;;;;;5135529;27;20059;-43
2022/09/07 14:09:47;;;;;;;8.35;2.28;;;;;;;;;;5129818;27;20111;-48
2022/09/07 14:12:20;;;;;;;4.38;1.90;;;;;;;;;;5133314;27;20027;-42
2022/09/07 14:14:46;;;;;;;4.47;2.92;;;;;;;;;;5129170;27;20020;-47
2022/09/07 14:17:13;;;;;;;1.75;1.30;;;;;;;;;;5129570;27;20031;-44
2022/09/07 14:19:48;;;;;;;2.00;1.00;;;;;;;;;;5128232;27;20192;-40
2022/09/07 14:22:18;;;;;;;1.73;1.20;;;;;;;;;;5126257;27;20031;-43
2022/09/07 14:24:47;;;;;;;4.10;1.63;;;;;;;;;;5135455;27;20587;-41
2022/09/07 14:27:31;;;;;;;2.88;2.08;;;;;;;;;;5135559;27;20027;-40
2022/09/07 14:30:15;;;;;;;8.82;1.83;;;;;;;;;;5131468;27;20031;-41
2022/09/07 14:32:41;;;;;;;5.38;1.52;;;;;;;;;;5136705;27;20033;-41
2022/09/07 14:35:16;;;;;;;2.92;2.28;;;;;;;;;;5132870;27;20027;-43
2022/09/07 14:37:42;;;;;;;5.90;1.38;;;;;;;;;;5134739;27;20517;-41
2022/09/07 14:40:12;;;;;;;2.90;1.88;;;;;;;;;;5130709;27;20022;-41
2022/09/07 14:42:40;;;;;;;4.97;1.80;;;;;;;;;;5131354;27;20486;-41
2022/09/07 14:45:15;;;;;;;1.73;1.25;;;;;;;;;;5131251;27;20023;-41
2022/09/07 14:47:40;;;;;;;3.88;0.82;;;;;;;;;;5132658;27;20081;-41
2022/09/07 14:50:15;;;;;;;10.38;1.83;;;;;;;;;;5137957;27;20019;-41
2022/09/07 14:52:40;;;;;;;10.70;2.20;;;;;;;;;;5133872;27;20023;-40